createdAt,value
2023-05-14T00:01:53.986Z,81.38
2023-05-14T00:04:21.137Z,81.14
2023-05-14T00:06:48.492Z,81.29
2023-05-14T00:09:15.853Z,81.39
2023-05-14T00:11:43.186Z,80.95
2023-05-14T00:14:10.377Z,81.47
2023-05-14T00:16:37.599Z,81.29
2023-05-14T00:19:04.762Z,81.03
2023-05-14T00:21:32.376Z,81.33
2023-05-14T00:24:03.157Z,81.60
2023-05-14T00:26:30.272Z,81.65
2023-05-14T00:28:58.026Z,81.97
2023-05-14T00:31:25.235Z,82.10
2023-05-14T00:33:52.594Z,82.48
2023-05-14T00:36:19.860Z,81.49
2023-05-14T00:38:47.009Z,82.05
2023-05-14T00:41:14.113Z,81.99
2023-05-14T00:43:41.672Z,82.96
2023-05-14T00:46:09.244Z,82.38
2023-05-14T00:48:36.809Z,82.04
2023-05-14T00:51:04.785Z,82.61
2023-05-14T00:53:32.035Z,82.28
2023-05-14T00:55:59.283Z,82.36
2023-05-14T00:58:26.956Z,83.08
2023-05-14T01:00:54.385Z,82.73
2023-05-14T01:03:21.642Z,82.79
2023-05-14T01:06:14.359Z,83.00
2023-05-14T01:09:06.754Z,83.11
2023-05-14T01:12:12.813Z,83.58
2023-05-14T01:14:57.491Z,83.15
2023-05-14T01:17:30.485Z,83.60
2023-05-14T01:19:58.271Z,83.27
2023-05-14T01:22:25.574Z,83.54
2023-05-14T01:24:52.706Z,84.36
2023-05-14T01:27:37.204Z,83.67
2023-05-14T01:30:41.413Z,83.72
2023-05-14T01:33:14.813Z,83.67
2023-05-14T01:35:42.945Z,83.35
2023-05-14T01:38:14.386Z,83.80
2023-05-14T01:40:42.268Z,83.53
2023-05-14T01:43:09.594Z,83.49
2023-05-14T01:45:37.485Z,83.49
2023-05-14T01:48:06.682Z,84.30
2023-05-14T01:50:34.523Z,83.57
2023-05-14T01:53:01.627Z,83.46
2023-05-14T01:55:28.811Z,83.73
2023-05-14T01:57:56.713Z,84.41
2023-05-14T02:00:27.747Z,84.16
2023-05-14T02:02:54.888Z,83.90
2023-05-14T02:05:23.995Z,84.13
2023-05-14T02:07:51.413Z,84.29
2023-05-14T02:10:18.776Z,84.32
2023-05-14T02:12:49.777Z,84.50
2023-05-14T02:15:17.629Z,84.67
2023-05-14T02:17:44.724Z,84.54
2023-05-14T02:20:12.965Z,84.76
2023-05-14T02:22:45.721Z,84.59
2023-05-14T02:25:13.145Z,84.38
2023-05-14T02:27:45.416Z,84.25
2023-05-14T02:30:22.149Z,84.68
2023-05-14T02:32:49.432Z,84.72
2023-05-14T02:35:16.657Z,85.04
2023-05-14T02:37:43.642Z,84.99
2023-05-14T02:40:11.306Z,84.40
2023-05-14T02:42:38.315Z,84.86
2023-05-14T02:45:06.500Z,85.12
2023-05-14T02:47:36.108Z,85.07
2023-05-14T02:50:06.467Z,85.01
2023-05-14T02:52:33.681Z,85.27
2023-05-14T02:55:00.862Z,84.65
2023-05-14T02:57:28.689Z,84.59
2023-05-14T02:59:56.341Z,85.36
2023-05-14T03:02:24.499Z,85.14
2023-05-14T03:04:52.548Z,84.88
2023-05-14T03:07:19.873Z,85.08
2023-05-14T03:09:46.948Z,85.15
2023-05-14T03:12:14.538Z,85.00
2023-05-14T03:14:41.605Z,85.38
2023-05-14T03:17:08.604Z,84.91
2023-05-14T03:19:35.923Z,85.43
2023-05-14T03:22:03.226Z,84.83
2023-05-14T03:24:30.407Z,85.29
2023-05-14T03:26:57.506Z,84.92
2023-05-14T03:29:25.761Z,85.45
2023-05-14T03:31:54.453Z,85.23
2023-05-14T03:34:21.733Z,84.80
2023-05-14T03:36:48.913Z,85.77
2023-05-14T03:39:19.706Z,85.25
2023-05-14T03:41:47.965Z,85.77
2023-05-14T03:44:15.269Z,85.68
2023-05-14T03:46:42.746Z,86.05
2023-05-14T03:49:10.622Z,85.73
2023-05-14T03:51:37.816Z,86.03
2023-05-14T03:54:06.967Z,86.12
2023-05-14T03:56:34.161Z,86.26
2023-05-14T03:59:01.689Z,86.05
2023-05-14T04:01:28.960Z,86.06
2023-05-14T04:03:58.334Z,86.48
2023-05-14T04:06:26.098Z,86.30
2023-05-14T04:08:53.832Z,86.31
2023-05-14T04:11:21.790Z,86.63
2023-05-14T04:13:49.970Z,86.47
2023-05-14T04:16:17.174Z,86.70
2023-05-14T04:18:44.374Z,86.83
2023-05-14T04:21:11.479Z,86.89
2023-05-14T04:23:38.712Z,87.05
2023-05-14T04:26:06.493Z,87.20
2023-05-14T04:28:33.869Z,87.70
2023-05-14T04:31:01.382Z,87.53
2023-05-14T04:33:28.453Z,87.53
2023-05-14T04:35:56.056Z,87.44
2023-05-14T04:38:23.352Z,87.55
2023-05-14T04:40:50.439Z,86.87
2023-05-14T04:43:17.791Z,87.53
2023-05-14T04:45:44.954Z,87.15
2023-05-14T04:48:12.902Z,87.44
2023-05-14T04:50:40.258Z,87.51
2023-05-14T04:53:07.400Z,87.65
2023-05-14T04:55:34.493Z,87.71
2023-05-14T04:58:01.834Z,87.72
2023-05-14T05:00:31.180Z,87.92
2023-05-14T05:02:58.622Z,87.99
2023-05-14T05:05:26.323Z,88.10
2023-05-14T05:07:53.689Z,88.26
2023-05-14T05:10:21.888Z,88.25
2023-05-14T05:12:49.448Z,88.00
2023-05-14T05:15:16.646Z,88.39
2023-05-14T05:17:43.696Z,88.13
2023-05-14T05:20:11.764Z,88.11
2023-05-14T05:22:38.892Z,87.70
2023-05-14T05:25:06.477Z,87.93
2023-05-14T05:27:33.696Z,87.54
2023-05-14T05:30:02.452Z,87.53
2023-05-14T05:32:31.377Z,88.02
2023-05-14T05:34:58.480Z,87.94
2023-05-14T05:37:25.494Z,87.83
2023-05-14T05:39:52.585Z,88.39
2023-05-14T05:42:19.926Z,88.19
2023-05-14T05:44:47.087Z,88.03
2023-05-14T05:47:14.159Z,88.14
2023-05-14T05:49:43.240Z,88.33
2023-05-14T05:52:10.501Z,87.99
2023-05-14T05:54:39.923Z,88.20
2023-05-14T05:57:07.422Z,87.95
2023-05-14T05:59:34.805Z,87.95
2023-05-14T06:02:02.352Z,88.06
2023-05-14T06:04:29.469Z,87.85
2023-05-14T06:06:56.806Z,88.29
2023-05-14T06:09:24.092Z,88.55
2023-05-14T06:11:51.451Z,88.53
2023-05-14T06:14:18.648Z,89.08
2023-05-14T06:16:45.815Z,89.25
2023-05-14T06:19:13.138Z,88.92
2023-05-14T06:21:40.456Z,88.37
2023-05-14T06:24:07.862Z,88.93
2023-05-14T06:26:35.058Z,88.45
2023-05-14T06:29:02.268Z,88.53
2023-05-14T06:31:29.365Z,88.51
2023-05-14T06:33:56.538Z,87.57
2023-05-14T06:36:23.634Z,87.50
2023-05-14T06:38:50.775Z,87.74
2023-05-14T06:41:17.994Z,87.07
2023-05-14T06:43:45.114Z,87.37
2023-05-14T06:46:12.134Z,87.28
2023-05-14T06:48:39.223Z,87.06
2023-05-14T06:51:06.489Z,86.61
2023-05-14T06:53:34.005Z,86.66
2023-05-14T06:56:01.294Z,86.78
2023-05-14T06:58:28.506Z,86.33
2023-05-14T07:00:56.106Z,86.00
2023-05-14T07:03:23.378Z,86.61
2023-05-14T07:05:51.235Z,86.07
2023-05-14T07:08:18.439Z,85.54
2023-05-14T07:10:46.019Z,85.97
2023-05-14T07:13:13.791Z,86.05
2023-05-14T07:15:40.959Z,85.82
2023-05-14T07:18:08.186Z,85.26
2023-05-14T07:20:35.374Z,84.89
2023-05-14T07:23:02.628Z,84.59
2023-05-14T07:25:29.801Z,84.31
2023-05-14T07:27:56.956Z,83.58
2023-05-14T07:30:24.645Z,84.05
2023-05-14T07:32:52.029Z,83.86
2023-05-14T07:35:19.373Z,83.88
2023-05-14T07:37:47.326Z,82.98
2023-05-14T07:40:15.498Z,83.22
2023-05-14T07:42:42.586Z,82.99
2023-05-14T07:45:10.245Z,83.41
2023-05-14T07:47:37.440Z,83.27
2023-05-14T07:50:05.065Z,83.51
2023-05-14T07:52:33.158Z,83.69
2023-05-14T07:55:01.662Z,83.07
2023-05-14T07:57:29.634Z,83.34
2023-05-14T07:59:57.298Z,83.91
2023-05-14T08:02:25.128Z,83.67
2023-05-14T08:04:52.926Z,83.38
2023-05-14T08:07:20.276Z,83.52
2023-05-14T08:09:47.813Z,83.74
2023-05-14T08:12:19.249Z,83.95
2023-05-14T08:14:46.733Z,83.27
2023-05-14T08:17:14.062Z,82.85
2023-05-14T08:19:41.743Z,83.42
2023-05-14T08:22:08.955Z,83.20
2023-05-14T08:24:36.179Z,83.25
2023-05-14T08:27:04.042Z,82.96
2023-05-14T08:29:31.494Z,82.56
2023-05-14T08:32:00.333Z,82.78
2023-05-14T08:34:31.210Z,82.32
2023-05-14T08:36:59.633Z,82.49
2023-05-14T08:39:26.744Z,82.43
2023-05-14T08:41:57.975Z,83.11
2023-05-14T08:44:37.962Z,82.66
2023-05-14T08:47:05.897Z,82.59
2023-05-14T08:49:43.623Z,82.92
2023-05-14T08:52:11.536Z,83.41
2023-05-14T08:54:40.877Z,83.40
2023-05-14T08:57:11.813Z,83.75
2023-05-14T08:59:39.366Z,83.64
2023-05-14T09:02:07.257Z,83.49
2023-05-14T09:04:35.099Z,83.78
2023-05-14T09:07:04.220Z,83.76
2023-05-14T09:09:34.529Z,83.41
2023-05-14T09:12:02.445Z,83.37
2023-05-14T09:14:29.641Z,83.35
2023-05-14T09:16:57.238Z,83.36
2023-05-14T09:19:25.008Z,83.70
2023-05-14T09:21:52.271Z,83.50
2023-05-14T09:24:25.380Z,83.34
2023-05-14T09:26:58.323Z,83.76
2023-05-14T09:29:26.672Z,83.56
2023-05-14T09:31:55.217Z,83.89
2023-05-14T09:34:25.449Z,83.43
2023-05-14T09:37:05.936Z,82.85
2023-05-14T09:39:36.495Z,82.54
2023-05-14T09:42:04.305Z,82.19
2023-05-14T09:44:32.013Z,81.93
2023-05-14T09:46:59.303Z,82.29
2023-05-14T09:49:26.493Z,82.81
2023-05-14T09:51:53.702Z,82.35
2023-05-14T09:54:21.278Z,81.88
2023-05-14T09:56:48.866Z,81.37
2023-05-14T09:59:16.228Z,81.73
2023-05-14T10:01:44.624Z,81.53
2023-05-14T10:04:12.944Z,81.96
2023-05-14T10:06:42.577Z,80.68
2023-05-14T10:09:13.848Z,79.50
2023-05-14T10:11:50.275Z,78.83
2023-05-14T10:14:41.696Z,78.84
2023-05-14T10:17:18.149Z,79.19
2023-05-14T10:19:54.842Z,79.00
2023-05-14T10:22:24.624Z,79.70
2023-05-14T10:24:52.726Z,79.16
2023-05-14T10:27:26.775Z,79.19
2023-05-14T10:29:55.525Z,78.67
2023-05-14T10:32:25.882Z,77.88
2023-05-14T10:34:53.920Z,77.10
2023-05-14T10:37:26.468Z,76.05
2023-05-14T10:40:02.580Z,76.48
2023-05-14T10:42:37.659Z,76.68
2023-05-14T10:45:08.415Z,76.75
2023-05-14T10:47:42.225Z,75.37
2023-05-14T10:50:11.809Z,75.29
2023-05-14T10:52:43.518Z,75.97
2023-05-14T10:55:15.463Z,75.41
2023-05-14T10:57:46.514Z,74.56
2023-05-14T11:00:15.632Z,73.07
2023-05-14T11:02:45.172Z,73.17
2023-05-14T11:05:17.281Z,72.35
2023-05-14T11:07:50.494Z,72.05
2023-05-14T11:10:21.040Z,73.00
2023-05-14T11:12:55.134Z,72.63
2023-05-14T11:15:29.181Z,72.90
2023-05-14T11:17:56.584Z,72.59
2023-05-14T11:20:24.069Z,72.20
2023-05-14T11:22:54.019Z,72.59
2023-05-14T11:25:22.871Z,72.39
2023-05-14T11:27:50.486Z,72.46
2023-05-14T11:30:20.567Z,71.77
2023-05-14T11:32:49.461Z,71.53
2023-05-14T11:35:17.836Z,71.94
2023-05-14T11:37:52.466Z,71.57
2023-05-14T11:40:20.115Z,72.37
2023-05-14T11:42:47.177Z,72.02
2023-05-14T11:45:27.172Z,71.68
2023-05-14T11:47:54.947Z,71.69
2023-05-14T11:50:23.300Z,71.12
2023-05-14T11:52:51.171Z,71.15
2023-05-14T11:55:18.533Z,71.54
2023-05-14T11:57:46.503Z,71.11
2023-05-14T12:00:16.967Z,71.19
2023-05-14T12:02:44.384Z,70.64
2023-05-14T12:05:13.632Z,69.78
2023-05-14T12:07:44.925Z,70.79
2023-05-14T12:10:13.717Z,70.43
2023-05-14T12:12:41.080Z,69.38
2023-05-14T12:15:18.531Z,69.45
2023-05-14T12:17:52.301Z,69.48
2023-05-14T12:20:19.604Z,69.15
2023-05-14T12:22:46.804Z,69.06
2023-05-14T12:25:14.435Z,69.21
2023-05-14T12:27:44.792Z,68.18
2023-05-14T12:30:27.505Z,67.49
2023-05-14T12:32:54.967Z,67.00
2023-05-14T12:35:23.114Z,66.91
2023-05-14T12:37:50.730Z,66.51
2023-05-14T12:40:18.228Z,66.88
2023-05-14T12:42:45.832Z,67.11
2023-05-14T12:45:12.955Z,66.31
2023-05-14T12:47:40.114Z,66.15
2023-05-14T12:50:08.037Z,65.78
2023-05-14T12:52:40.744Z,65.80
2023-05-14T12:55:09.375Z,64.95
2023-05-14T12:57:39.314Z,64.58
2023-05-14T13:00:13.720Z,65.57
2023-05-14T13:02:42.525Z,65.11
2023-05-14T13:05:12.501Z,64.71
2023-05-14T13:07:40.094Z,64.27
2023-05-14T13:10:09.017Z,64.71
2023-05-14T13:12:36.335Z,64.47
2023-05-14T13:15:03.627Z,64.74
2023-05-14T13:17:32.607Z,64.82
2023-05-14T13:19:59.621Z,65.24
2023-05-14T13:22:26.809Z,64.92
2023-05-14T13:24:54.738Z,65.20
2023-05-14T13:27:21.878Z,65.21
2023-05-14T13:29:48.935Z,64.84
2023-05-14T13:32:16.102Z,65.41
2023-05-14T13:34:44.171Z,66.28
2023-05-14T13:37:11.470Z,67.68
2023-05-14T13:39:40.299Z,68.30
2023-05-14T13:42:11.373Z,68.33
2023-05-14T13:44:38.522Z,69.18
2023-05-14T13:47:05.998Z,69.35
2023-05-14T13:49:33.130Z,69.58
2023-05-14T13:52:00.383Z,70.57
2023-05-14T13:54:45.410Z,70.77
2023-05-14T13:58:02.328Z,70.44
2023-05-14T14:05:09.237Z,72.65
2023-05-14T14:10:57.802Z,74.72
2023-05-14T14:13:31.209Z,74.43
2023-05-14T14:15:58.326Z,75.44
2023-05-14T14:18:28.086Z,75.26
2023-05-14T14:20:55.985Z,75.73
2023-05-14T14:23:22.992Z,75.37
2023-05-14T14:25:50.126Z,76.56
2023-05-14T14:28:17.410Z,76.41
2023-05-14T14:30:44.771Z,76.67
2023-05-14T14:33:11.909Z,77.13
2023-05-14T14:35:39.243Z,78.03
2023-05-14T14:38:06.364Z,78.34
2023-05-14T14:40:34.850Z,78.84
2023-05-14T14:43:03.487Z,78.84
2023-05-14T14:45:30.922Z,78.75
2023-05-14T14:48:39.946Z,78.59
2023-05-14T14:51:11.211Z,78.23
2023-05-14T14:54:10.872Z,79.10
2023-05-14T14:56:59.308Z,78.65
2023-05-14T14:59:54.784Z,78.16
2023-05-14T15:02:22.214Z,78.20
2023-05-14T15:04:49.519Z,78.18
2023-05-14T15:07:22.762Z,77.94
2023-05-14T15:09:50.024Z,78.68
2023-05-14T15:12:17.225Z,78.54
2023-05-14T15:14:44.407Z,78.79
2023-05-14T15:17:12.075Z,78.21
2023-05-14T15:19:39.218Z,78.81
2023-05-14T15:22:06.374Z,78.75
2023-05-14T15:24:33.528Z,78.35
2023-05-14T15:27:00.762Z,78.54
2023-05-14T15:29:28.769Z,78.91
2023-05-14T15:31:56.043Z,78.27
2023-05-14T15:34:23.244Z,78.54
2023-05-14T15:36:50.662Z,79.15
2023-05-14T15:39:17.863Z,78.63
2023-05-14T15:41:45.548Z,79.25
2023-05-14T15:44:12.630Z,79.41
2023-05-14T15:46:39.745Z,79.99
2023-05-14T15:49:06.893Z,80.16
2023-05-14T15:51:34.736Z,80.14
2023-05-14T15:54:02.065Z,80.58
2023-05-14T15:56:29.423Z,80.80
2023-05-14T15:58:56.736Z,80.80
2023-05-14T16:01:23.969Z,80.75
2023-05-14T16:03:53.198Z,81.25
2023-05-14T16:06:20.622Z,81.12
2023-05-14T16:08:47.828Z,81.03
2023-05-14T16:11:15.004Z,81.46
2023-05-14T16:13:42.062Z,81.62
2023-05-14T16:16:09.163Z,81.31
2023-05-14T16:18:36.744Z,81.91
2023-05-14T16:21:03.853Z,81.46
2023-05-14T16:23:31.119Z,81.90
2023-05-14T16:25:58.306Z,82.38
2023-05-14T16:28:25.806Z,81.99
2023-05-14T16:30:52.837Z,82.26
2023-05-14T16:33:19.911Z,81.88
2023-05-14T16:35:47.043Z,81.47
2023-05-14T16:38:14.084Z,81.53
2023-05-14T16:40:41.847Z,80.69
2023-05-14T16:43:08.991Z,80.89
2023-05-14T16:45:37.504Z,81.20
2023-05-14T16:48:05.158Z,81.47
2023-05-14T16:50:32.504Z,82.08
2023-05-14T16:52:59.588Z,82.11
2023-05-14T16:55:39.035Z,81.90
2023-05-14T16:58:30.744Z,82.24
2023-05-14T17:00:59.047Z,82.08
2023-05-14T17:07:24.194Z,82.62
2023-05-14T17:10:48.304Z,82.87
2023-05-14T17:13:58.417Z,83.22
2023-05-14T17:22:15.441Z,83.16
2023-05-14T17:24:45.279Z,82.90
2023-05-14T17:27:13.085Z,82.80
2023-05-14T17:29:41.043Z,83.38
2023-05-14T17:32:08.188Z,84.01
2023-05-14T17:34:35.219Z,84.24
2023-05-14T17:37:02.366Z,84.08
2023-05-14T17:39:43.171Z,84.45
2023-05-14T17:42:11.036Z,84.56
2023-05-14T17:44:38.106Z,84.61
2023-05-14T17:47:06.776Z,84.02
2023-05-14T17:49:34.366Z,84.20
2023-05-14T17:52:02.085Z,84.69
2023-05-14T17:54:29.764Z,84.71
2023-05-14T17:56:57.073Z,85.49
2023-05-14T17:59:24.523Z,85.37
2023-05-14T18:01:51.707Z,85.35
2023-05-14T18:04:18.830Z,85.55
2023-05-14T18:06:48.156Z,85.64
2023-05-14T18:09:15.782Z,85.65
2023-05-14T18:11:43.132Z,86.31
2023-05-14T18:14:10.356Z,86.17
2023-05-14T18:16:37.907Z,86.41
2023-05-14T18:19:05.205Z,86.07
2023-05-14T18:21:32.602Z,86.31
2023-05-14T18:23:59.693Z,85.70
2023-05-14T18:26:26.764Z,86.38
2023-05-14T18:28:53.938Z,86.49
2023-05-14T18:31:21.280Z,86.26
2023-05-14T18:33:48.506Z,86.17
2023-05-14T18:36:15.721Z,86.15
2023-05-14T18:38:43.205Z,86.35
2023-05-14T18:41:39.225Z,86.48
2023-05-14T18:49:17.618Z,87.16
2023-05-14T18:51:50.524Z,86.80
2023-05-14T18:54:24.411Z,86.52
2023-05-14T18:56:52.646Z,86.49
2023-05-14T18:59:20.945Z,87.15
2023-05-14T19:01:48.320Z,87.28
2023-05-14T19:04:20.532Z,87.05
2023-05-14T19:07:03.103Z,87.17
2023-05-14T19:09:30.271Z,87.19
2023-05-14T19:15:27.799Z,87.56
2023-05-14T19:17:57.733Z,87.13
2023-05-14T19:20:24.990Z,86.96
2023-05-14T19:22:52.209Z,87.05
2023-05-14T19:25:19.246Z,87.28
2023-05-14T19:27:50.648Z,87.87
2023-05-14T19:30:19.474Z,87.21
2023-05-14T19:32:46.581Z,87.46
2023-05-14T19:35:13.638Z,88.12
2023-05-14T19:37:40.743Z,88.14
2023-05-14T19:40:09.103Z,88.34
2023-05-14T19:42:36.279Z,87.76
2023-05-14T19:45:04.138Z,88.12
2023-05-14T19:47:31.319Z,88.05
2023-05-14T19:49:58.660Z,87.23
2023-05-14T19:52:25.786Z,87.71
2023-05-14T19:54:52.889Z,87.75
2023-05-14T19:57:20.389Z,87.70
2023-05-14T19:59:54.698Z,87.86
2023-05-14T20:02:22.079Z,87.50
2023-05-14T20:04:49.631Z,87.54
2023-05-14T20:07:17.324Z,88.13
2023-05-14T20:09:44.448Z,87.77
2023-05-14T20:12:18.006Z,87.99
2023-05-14T20:14:45.087Z,87.01
2023-05-14T20:17:12.476Z,86.80
2023-05-14T20:19:39.736Z,87.11
2023-05-14T20:22:06.828Z,86.96
2023-05-14T20:24:33.888Z,86.80
2023-05-14T20:27:00.963Z,87.32
2023-05-14T20:29:28.121Z,87.37
2023-05-14T20:31:55.179Z,87.31
2023-05-14T20:34:22.243Z,86.94
2023-05-14T20:36:49.320Z,86.28
2023-05-14T20:39:16.771Z,86.36
2023-05-14T20:41:45.690Z,87.04
2023-05-14T20:44:12.741Z,87.39
2023-05-14T20:47:03.209Z,87.17
2023-05-14T20:58:42.305Z,86.90
2023-05-14T21:06:02.418Z,86.78
2023-05-14T21:08:42.908Z,87.14
2023-05-14T21:11:34.138Z,86.49
2023-05-14T21:14:20.714Z,86.85
2023-05-14T21:16:48.626Z,86.26
2023-05-14T21:19:18.884Z,87.09
2023-05-14T21:21:47.507Z,86.55
2023-05-14T21:24:16.760Z,87.43
2023-05-14T21:26:43.856Z,86.60
2023-05-14T21:29:11.441Z,86.33
2023-05-14T21:32:01.227Z,86.09
2023-05-14T21:34:49.210Z,85.96
2023-05-14T21:37:39.787Z,85.89
2023-05-14T21:40:23.143Z,86.05
2023-05-14T21:42:50.265Z,86.45
2023-05-14T21:45:17.516Z,86.73
2023-05-14T21:47:44.728Z,86.71
2023-05-14T21:50:13.118Z,86.57
2023-05-14T21:52:41.329Z,86.27
2023-05-14T21:55:09.430Z,85.59
2023-05-14T21:57:53.126Z,85.32
2023-05-14T22:00:41.007Z,85.44
2023-05-14T22:03:18.527Z,85.24
2023-05-14T22:06:05.925Z,85.25
2023-05-14T22:08:33.282Z,85.58
2023-05-14T22:11:45.870Z,85.17
2023-05-14T22:15:31.181Z,85.30
2023-05-14T22:18:43.213Z,85.08
2023-05-14T22:22:03.390Z,85.50
2023-05-14T22:24:55.710Z,85.53
2023-05-14T22:27:32.301Z,86.06
2023-05-14T22:30:13.933Z,85.83
2023-05-14T22:32:41.381Z,85.79
2023-05-14T22:35:31.390Z,85.53
2023-05-14T22:38:11.340Z,85.28
2023-05-14T22:41:07.947Z,85.84
2023-05-14T22:44:20.074Z,85.95
2023-05-14T22:47:42.332Z,85.95
2023-05-14T22:51:15.988Z,85.24
2023-05-14T22:53:55.893Z,86.27
2023-05-14T22:57:04.656Z,86.68
2023-05-14T23:04:08.600Z,86.17
2023-05-14T23:06:44.311Z,86.53
2023-05-14T23:09:25.698Z,86.36
2023-05-14T23:14:56.581Z,85.88
2023-05-14T23:18:24.781Z,86.44
2023-05-14T23:21:31.146Z,86.68
2023-05-14T23:25:12.519Z,87.03
2023-05-14T23:28:16.580Z,86.88
2023-05-14T23:31:30.151Z,86.88
2023-05-14T23:34:30.226Z,86.71
2023-05-14T23:37:57.602Z,87.03
2023-05-14T23:41:22.831Z,86.67
2023-05-14T23:44:21.715Z,86.78
2023-05-14T23:57:47.242Z,85.84
